createdAt,value
2018-05-13T00:01:58.154Z,17.80
2018-05-13T00:04:25.649Z,17.80
2018-05-13T00:06:55.869Z,17.70
2018-05-13T00:09:24.114Z,17.70
2018-05-13T00:11:51.615Z,17.70
2018-05-13T00:14:19.097Z,17.70
2018-05-13T00:16:46.604Z,17.70
2018-05-13T00:19:14.662Z,17.70
2018-05-13T00:21:42.143Z,17.80
2018-05-13T00:24:10.386Z,17.70
2018-05-13T00:26:37.893Z,17.70
2018-05-13T00:29:06.145Z,17.70
2018-05-13T00:31:34.469Z,17.70
2018-05-13T00:34:01.970Z,17.40
2018-05-13T00:36:30.020Z,17.30
2018-05-13T00:38:57.750Z,17.30
2018-05-13T00:41:31.845Z,17.10
2018-05-13T00:44:00.820Z,16.70
2018-05-13T00:46:28.295Z,16.60
2018-05-13T00:48:56.560Z,16.40
2018-05-13T00:51:24.042Z,16.40
2018-05-13T00:53:52.261Z,16.30
2018-05-13T00:56:19.766Z,16.20
2018-05-13T00:58:48.007Z,16.20
2018-05-13T01:01:15.491Z,16.10
2018-05-13T01:03:43.756Z,16.10
2018-05-13T01:06:11.235Z,16.00
2018-05-13T01:08:40.238Z,16.50
2018-05-13T01:11:08.503Z,16.90
2018-05-13T01:13:36.742Z,16.90
2018-05-13T01:16:04.789Z,16.90
2018-05-13T01:18:32.376Z,17.00
2018-05-13T01:21:00.554Z,16.90
2018-05-13T01:23:28.594Z,16.80
2018-05-13T01:25:56.102Z,16.80
2018-05-13T01:28:23.852Z,16.60
2018-05-13T01:30:51.335Z,16.40
2018-05-13T01:33:19.598Z,16.60
2018-05-13T01:35:47.097Z,16.60
2018-05-13T01:38:14.574Z,16.40
2018-05-13T01:40:42.070Z,16.30
2018-05-13T01:43:09.579Z,16.20
2018-05-13T01:45:37.315Z,16.00
2018-05-13T01:48:05.582Z,16.00
2018-05-13T01:50:33.079Z,15.90
2018-05-13T01:53:00.574Z,15.90
2018-05-13T01:55:28.095Z,16.00
2018-05-13T01:57:56.578Z,16.00
2018-05-13T02:00:24.058Z,15.90
2018-05-13T02:02:51.555Z,15.90
2018-05-13T02:05:19.037Z,15.90
2018-05-13T02:07:46.519Z,15.90
2018-05-13T02:10:14.211Z,15.90
2018-05-13T02:12:41.690Z,15.90
2018-05-13T02:15:09.186Z,15.80
2018-05-13T02:17:37.272Z,15.80
2018-05-13T02:20:04.746Z,15.60
2018-05-13T02:22:32.230Z,15.50
2018-05-13T02:24:59.730Z,15.30
2018-05-13T02:27:27.211Z,15.30
2018-05-13T02:29:55.138Z,15.20
2018-05-13T02:32:24.066Z,15.10
2018-05-13T02:34:52.139Z,15.10
2018-05-13T02:37:19.619Z,15.20
2018-05-13T02:39:47.143Z,15.20
2018-05-13T02:42:14.618Z,15.20
2018-05-13T02:44:42.101Z,15.10
2018-05-13T02:47:09.610Z,15.10
2018-05-13T02:49:37.089Z,14.90
2018-05-13T02:52:04.851Z,14.90
2018-05-13T02:54:32.404Z,14.80
2018-05-13T02:56:59.879Z,14.90
2018-05-13T02:59:27.366Z,14.80
2018-05-13T03:01:54.959Z,14.80
2018-05-13T03:04:22.373Z,15.00
2018-05-13T03:06:49.861Z,15.00
2018-05-13T03:09:18.133Z,14.80
2018-05-13T03:11:45.610Z,14.80
2018-05-13T03:14:15.733Z,15.00
2018-05-13T03:16:43.241Z,14.90
2018-05-13T03:19:10.728Z,15.00
2018-05-13T03:21:39.057Z,15.00
2018-05-13T03:24:07.151Z,14.80
2018-05-13T03:26:34.629Z,14.80
2018-05-13T03:29:02.108Z,14.70
2018-05-13T03:31:30.402Z,14.70
2018-05-13T03:33:57.878Z,14.70
2018-05-13T03:36:25.383Z,15.00
2018-05-13T03:38:52.869Z,15.10
2018-05-13T03:41:21.810Z,15.20
2018-05-13T03:43:49.307Z,15.20
2018-05-13T03:46:17.946Z,15.40
2018-05-13T03:48:45.468Z,15.30
2018-05-13T03:51:13.354Z,15.40
2018-05-13T03:53:40.850Z,15.50
2018-05-13T03:56:09.221Z,15.50
2018-05-13T03:58:36.701Z,15.60
2018-05-13T04:01:04.203Z,15.60
2018-05-13T04:03:32.146Z,15.60
2018-05-13T04:06:00.357Z,15.90
2018-05-13T04:08:48.423Z,15.80
2018-05-13T04:11:27.618Z,15.80
2018-05-13T04:14:06.957Z,15.80
2018-05-13T04:16:34.881Z,15.80
2018-05-13T04:19:02.385Z,15.90
2018-05-13T04:21:29.867Z,15.80
2018-05-13T04:23:57.367Z,15.70
2018-05-13T04:26:26.413Z,15.70
2018-05-13T04:28:54.474Z,15.70
2018-05-13T04:31:21.974Z,15.70
2018-05-13T04:33:50.195Z,15.70
2018-05-13T04:36:17.697Z,15.60
2018-05-13T04:38:46.850Z,15.60
2018-05-13T04:41:14.811Z,15.70
2018-05-13T04:43:43.069Z,15.80
2018-05-13T04:46:11.310Z,15.80
2018-05-13T04:48:38.821Z,15.80
2018-05-13T04:51:07.334Z,15.80
2018-05-13T04:53:34.814Z,15.80
2018-05-13T04:56:02.314Z,15.80
2018-05-13T04:58:30.562Z,16.00
2018-05-13T05:00:58.923Z,16.00
2018-05-13T05:03:26.402Z,16.30
2018-05-13T05:05:53.886Z,16.30
2018-05-13T05:08:22.261Z,16.60
2018-05-13T05:10:50.502Z,16.70
2018-05-13T05:13:18.594Z,16.70
2018-05-13T05:15:46.097Z,16.70
2018-05-13T05:18:14.102Z,16.90
2018-05-13T05:20:42.022Z,17.00
2018-05-13T05:23:09.529Z,17.10
2018-05-13T05:25:37.324Z,17.00
2018-05-13T05:28:05.595Z,17.30
2018-05-13T05:30:33.074Z,17.20
2018-05-13T05:33:01.393Z,17.40
2018-05-13T05:35:28.886Z,17.30
2018-05-13T05:37:56.362Z,17.30
2018-05-13T05:40:24.634Z,17.70
2018-05-13T05:42:52.877Z,17.70
2018-05-13T05:45:20.354Z,17.70
2018-05-13T05:47:47.962Z,17.90
2018-05-13T05:50:15.442Z,18.00
2018-05-13T05:52:42.981Z,17.90
2018-05-13T05:55:10.457Z,17.80
2018-05-13T05:57:38.793Z,17.90
2018-05-13T06:00:07.615Z,17.90
2018-05-13T06:02:35.550Z,17.90
2018-05-13T06:05:04.266Z,17.90
2018-05-13T06:07:31.746Z,17.90
2018-05-13T06:09:59.282Z,17.90
2018-05-13T06:12:26.781Z,18.00
2018-05-13T06:14:54.260Z,18.00
2018-05-13T06:17:22.543Z,18.10
2018-05-13T06:19:50.791Z,18.00
2018-05-13T06:22:18.273Z,18.00
2018-05-13T06:24:46.551Z,18.20
2018-05-13T06:27:15.256Z,18.40
2018-05-13T06:29:42.753Z,18.30
2018-05-13T06:32:10.237Z,18.60
2018-05-13T06:34:37.715Z,18.50
2018-05-13T06:37:06.012Z,18.70
2018-05-13T06:39:33.549Z,18.70
2018-05-13T06:42:01.018Z,18.90
2018-05-13T06:44:29.317Z,18.90
2018-05-13T06:46:57.593Z,18.80
2018-05-13T06:49:25.559Z,19.00
2018-05-13T06:51:53.037Z,19.00
2018-05-13T06:54:21.116Z,19.00
2018-05-13T06:56:49.034Z,18.90
2018-05-13T06:59:17.300Z,19.00
2018-05-13T07:01:44.801Z,18.90
2018-05-13T07:04:13.109Z,19.00
2018-05-13T07:06:43.205Z,18.90
2018-05-13T07:09:11.417Z,18.90
2018-05-13T07:11:38.901Z,19.00
2018-05-13T07:14:07.162Z,19.00
2018-05-13T07:16:34.654Z,18.90
2018-05-13T07:19:02.165Z,19.00
2018-05-13T07:21:29.641Z,19.30
2018-05-13T07:23:57.890Z,19.90
2018-05-13T07:26:25.390Z,19.90
2018-05-13T07:28:53.650Z,20.30
2018-05-13T07:31:22.058Z,20.20
2018-05-13T07:33:49.538Z,20.30
2018-05-13T07:36:17.089Z,20.20
2018-05-13T07:38:44.590Z,20.20
2018-05-13T07:41:12.070Z,20.20
2018-05-13T07:43:40.354Z,20.10
2018-05-13T07:46:08.602Z,20.10
2018-05-13T07:48:36.105Z,20.10
2018-05-13T07:51:03.659Z,20.10
2018-05-13T07:53:31.103Z,20.10
2018-05-13T07:55:59.382Z,20.20
2018-05-13T07:58:27.627Z,20.30
2018-05-13T08:00:55.105Z,20.30
2018-05-13T08:03:23.373Z,20.50
2018-05-13T08:05:51.767Z,20.50
2018-05-13T08:08:20.601Z,20.50
2018-05-13T08:10:48.078Z,20.50
2018-05-13T08:13:16.143Z,20.70
2018-05-13T08:15:43.650Z,20.40
2018-05-13T08:18:11.910Z,20.40
2018-05-13T08:20:39.419Z,20.30
2018-05-13T08:23:06.898Z,20.50
2018-05-13T08:25:34.575Z,20.40
2018-05-13T08:28:02.070Z,20.30
2018-05-13T08:30:30.313Z,20.50
2018-05-13T08:32:57.810Z,20.50
2018-05-13T08:35:26.055Z,20.60
2018-05-13T08:37:53.533Z,20.60
2018-05-13T08:40:21.808Z,20.70
2018-05-13T08:42:50.771Z,20.80
2018-05-13T08:45:18.782Z,20.80
2018-05-13T08:47:47.083Z,21.00
2018-05-13T08:50:14.565Z,21.00
2018-05-13T08:52:42.071Z,20.90
2018-05-13T08:55:10.322Z,21.00
2018-05-13T08:57:38.397Z,21.00
2018-05-13T09:00:06.672Z,21.30
2018-05-13T09:02:36.383Z,21.30
2018-05-13T09:05:03.891Z,21.30
2018-05-13T09:07:33.946Z,21.30
2018-05-13T09:10:01.454Z,21.40
2018-05-13T09:12:28.946Z,21.50
2018-05-13T09:14:56.815Z,21.60
2018-05-13T09:17:24.322Z,21.70
2018-05-13T09:19:52.570Z,20.90
2018-05-13T09:22:20.523Z,20.90
2018-05-13T09:24:48.015Z,20.50
2018-05-13T09:27:15.501Z,20.30
2018-05-13T09:29:43.785Z,19.90
2018-05-13T09:32:12.233Z,19.80
2018-05-13T09:34:39.738Z,19.70
2018-05-13T09:37:07.218Z,19.50
2018-05-13T09:39:34.746Z,19.40
2018-05-13T09:42:02.986Z,19.40
2018-05-13T09:44:30.558Z,19.40
2018-05-13T09:46:59.083Z,19.50
2018-05-13T09:49:26.597Z,19.70
2018-05-13T09:51:54.841Z,19.60
2018-05-13T09:54:22.344Z,19.50
2018-05-13T09:56:50.593Z,19.40
2018-05-13T09:59:18.076Z,19.40
2018-05-13T10:01:46.342Z,19.50
2018-05-13T10:04:14.594Z,19.60
2018-05-13T10:06:42.093Z,19.60
2018-05-13T10:09:15.038Z,19.70
2018-05-13T10:11:43.330Z,19.70
2018-05-13T10:14:10.801Z,19.70
2018-05-13T10:16:39.050Z,19.30
2018-05-13T10:19:07.251Z,19.40
2018-05-13T10:21:35.493Z,19.30
2018-05-13T10:24:03.004Z,19.30
2018-05-13T10:26:30.486Z,19.40
2018-05-13T10:28:58.882Z,19.50
2018-05-13T10:31:26.380Z,19.50
2018-05-13T10:33:54.622Z,19.60
2018-05-13T10:36:22.206Z,19.60
2018-05-13T10:38:49.613Z,19.80
2018-05-13T10:41:17.406Z,19.40
2018-05-13T10:43:44.913Z,19.20
2018-05-13T10:46:13.543Z,19.00
2018-05-13T10:48:41.075Z,19.00
2018-05-13T10:51:08.555Z,19.00
2018-05-13T10:53:36.037Z,19.10
2018-05-13T10:56:04.302Z,19.60
2018-05-13T10:58:31.779Z,19.60
2018-05-13T11:00:59.622Z,19.60
2018-05-13T11:03:27.109Z,19.40
2018-05-13T11:05:55.519Z,19.50
2018-05-13T11:08:23.600Z,19.50
2018-05-13T11:10:51.085Z,19.40
2018-05-13T11:13:18.581Z,19.40
2018-05-13T11:15:46.063Z,19.40
2018-05-13T11:18:13.546Z,19.40
2018-05-13T11:20:41.079Z,19.50
2018-05-13T11:23:09.310Z,20.10
2018-05-13T11:25:37.391Z,20.00
2018-05-13T11:28:05.314Z,19.70
2018-05-13T11:30:32.795Z,19.60
2018-05-13T11:33:00.300Z,19.70
2018-05-13T11:35:28.542Z,20.10
2018-05-13T11:37:56.065Z,20.10
2018-05-13T11:40:24.246Z,20.70
2018-05-13T11:42:51.734Z,20.80
2018-05-13T11:45:20.575Z,20.60
2018-05-13T11:47:48.050Z,20.60
2018-05-13T11:50:15.546Z,21.10
2018-05-13T11:52:43.575Z,21.60
2018-05-13T11:55:11.062Z,22.20
2018-05-13T11:57:39.937Z,22.50
2018-05-13T12:00:07.432Z,23.20
2018-05-13T12:02:35.379Z,23.50
2018-05-13T12:05:03.834Z,23.70
2018-05-13T12:07:31.338Z,23.60
2018-05-13T12:10:01.674Z,23.40
2018-05-13T12:12:29.996Z,22.90
2018-05-13T12:14:58.388Z,22.90
2018-05-13T12:17:25.866Z,23.20
2018-05-13T12:19:53.347Z,23.20
2018-05-13T12:22:20.846Z,23.20
2018-05-13T12:24:48.327Z,23.00
2018-05-13T12:27:15.821Z,22.90
2018-05-13T12:29:44.086Z,23.30
2018-05-13T12:32:11.561Z,23.20
2018-05-13T12:34:39.052Z,23.30
2018-05-13T12:37:06.530Z,24.10
2018-05-13T12:42:27.867Z,24.20
2018-05-13T12:44:55.370Z,24.40
2018-05-13T12:47:23.301Z,24.50
2018-05-13T12:49:50.778Z,24.50
2018-05-13T12:52:19.754Z,24.20
2018-05-13T12:54:47.683Z,23.20
2018-05-13T12:57:15.946Z,22.50
2018-05-13T12:59:45.687Z,22.50
2018-05-13T13:02:13.162Z,22.50
2018-05-13T13:04:40.661Z,22.50
2018-05-13T13:07:08.690Z,22.90
2018-05-13T13:09:36.199Z,23.10
2018-05-13T13:12:04.897Z,23.80
2018-05-13T13:14:33.938Z,24.40
2018-05-13T13:17:01.866Z,24.30
2018-05-13T13:19:29.347Z,24.20
2018-05-13T13:21:56.851Z,23.40
2018-05-13T13:24:24.328Z,22.60
2018-05-13T13:26:52.898Z,21.70
2018-05-13T13:29:20.406Z,21.60
2018-05-13T13:31:47.890Z,21.40
2018-05-13T13:34:15.387Z,21.10
2018-05-13T13:36:43.734Z,20.70
2018-05-13T13:39:11.134Z,20.70
2018-05-13T13:41:40.201Z,21.40
2018-05-13T13:44:07.679Z,21.30
2018-05-13T13:46:35.922Z,21.90
2018-05-13T13:49:03.430Z,21.90
2018-05-13T13:51:30.905Z,22.00
2018-05-13T13:53:58.390Z,21.90
2018-05-13T13:56:25.890Z,21.80
2018-05-13T13:58:54.135Z,22.00
2018-05-13T14:01:22.518Z,22.00
2018-05-13T14:03:49.999Z,21.90
2018-05-13T14:06:19.247Z,21.30
2018-05-13T14:08:46.686Z,21.20
2018-05-13T14:11:14.162Z,21.70
2018-05-13T14:13:42.449Z,22.30
2018-05-13T14:16:09.929Z,22.60
2018-05-13T14:18:37.415Z,22.60
2018-05-13T14:21:05.683Z,22.50
2018-05-13T14:23:33.926Z,22.00
2018-05-13T14:26:02.334Z,22.00
2018-05-13T14:28:30.618Z,21.30
2018-05-13T14:30:59.271Z,20.80
2018-05-13T14:33:26.780Z,20.70
2018-05-13T14:35:54.266Z,20.70
2018-05-13T14:38:21.778Z,20.60
2018-05-13T14:40:52.722Z,20.80
2018-05-13T14:43:20.138Z,20.80
2018-05-13T14:45:47.642Z,20.60
2018-05-13T14:48:15.122Z,20.50
2018-05-13T14:50:42.630Z,20.30
2018-05-13T14:53:10.119Z,20.20
2018-05-13T14:55:38.790Z,20.40
2018-05-13T14:58:07.154Z,20.20
2018-05-13T15:00:36.150Z,20.10
2018-05-13T15:03:03.731Z,20.10
2018-05-13T15:05:32.414Z,19.80
2018-05-13T15:08:00.666Z,19.60
2018-05-13T15:10:28.178Z,19.50
2018-05-13T15:12:55.702Z,19.40
2018-05-13T15:15:24.095Z,19.10
2018-05-13T15:17:52.345Z,19.00
2018-05-13T15:20:19.835Z,19.00
2018-05-13T15:22:47.339Z,18.90
2018-05-13T15:25:14.822Z,18.70
2018-05-13T15:27:42.893Z,18.60
2018-05-13T15:30:11.627Z,18.50
2018-05-13T15:32:39.097Z,18.40
2018-05-13T15:35:07.966Z,18.30
2018-05-13T15:37:36.018Z,18.20
2018-05-13T15:40:04.289Z,18.20
2018-05-13T15:42:32.638Z,18.30
2018-05-13T15:45:00.791Z,18.10
2018-05-13T15:47:28.287Z,18.10
2018-05-13T15:49:57.117Z,18.10
2018-05-13T15:52:24.617Z,18.20
2018-05-13T15:54:52.170Z,18.10
2018-05-13T15:57:19.606Z,18.10
2018-05-13T15:59:47.447Z,18.00
2018-05-13T16:02:15.807Z,17.90
2018-05-13T16:04:43.322Z,17.80
2018-05-13T16:12:53.146Z,18.00
2018-05-13T16:15:20.892Z,18.00
2018-05-13T16:17:49.204Z,17.90
2018-05-13T16:20:16.739Z,17.80
2018-05-13T16:22:44.222Z,17.90
2018-05-13T16:25:11.713Z,17.80
2018-05-13T16:27:39.209Z,17.90
2018-05-13T16:30:06.785Z,17.80
2018-05-13T16:32:34.215Z,17.90
2018-05-13T16:35:02.454Z,17.80
2018-05-13T16:37:29.972Z,17.80
2018-05-13T16:39:57.470Z,17.60
2018-05-13T16:42:24.948Z,17.50
2018-05-13T16:44:53.210Z,17.30
2018-05-13T16:47:20.689Z,17.20
2018-05-13T16:49:48.954Z,17.20
2018-05-13T16:52:17.213Z,17.10
2018-05-13T16:54:44.702Z,17.00
2018-05-13T16:57:12.973Z,16.90
2018-05-13T16:59:41.219Z,16.80
2018-05-13T17:02:08.727Z,16.70
2018-05-13T17:04:36.214Z,16.70
2018-05-13T17:07:03.736Z,16.70
2018-05-13T17:09:32.063Z,16.70
2018-05-13T17:12:00.299Z,16.70
2018-05-13T17:14:27.814Z,16.70
2018-05-13T17:16:55.302Z,16.70
2018-05-13T17:19:23.556Z,16.80
2018-05-13T17:21:51.058Z,16.70
2018-05-13T17:24:18.559Z,16.70
2018-05-13T17:26:46.074Z,16.60
2018-05-13T17:29:13.563Z,16.50
2018-05-13T17:31:41.095Z,16.40
2018-05-13T17:34:08.695Z,16.40
2018-05-13T17:36:36.231Z,16.30
2018-05-13T17:39:03.822Z,16.30
2018-05-13T17:41:31.325Z,16.10
2018-05-13T17:43:58.960Z,16.10
2018-05-13T17:46:26.561Z,15.90
2018-05-13T17:48:54.190Z,15.80
2018-05-13T17:51:21.691Z,15.80
2018-05-13T17:53:49.202Z,15.70
2018-05-13T17:56:17.469Z,15.60
2018-05-13T17:58:44.986Z,15.50
2018-05-13T18:01:14.250Z,15.50
2018-05-13T18:03:46.749Z,15.60
2018-05-13T18:06:34.023Z,15.50
2018-05-13T18:09:07.321Z,15.50
2018-05-13T18:11:51.906Z,15.50
2018-05-13T18:14:23.760Z,15.40
2018-05-13T18:16:55.026Z,15.40
2018-05-13T18:19:22.542Z,15.40
2018-05-13T18:21:50.793Z,15.30
2018-05-13T18:24:18.605Z,15.30
2018-05-13T18:26:46.111Z,15.20
2018-05-13T18:29:13.954Z,15.30
2018-05-13T18:31:41.668Z,15.30
2018-05-13T18:34:39.604Z,15.20
2018-05-13T18:37:22.532Z,15.20
2018-05-13T18:42:48.611Z,15.20
2018-05-13T18:45:18.967Z,15.10
2018-05-13T18:47:46.500Z,15.10
2018-05-13T18:55:13.731Z,15.00
2018-05-13T18:57:43.317Z,15.00
2018-05-13T19:00:12.185Z,15.00
2018-05-13T19:02:53.874Z,15.00
2018-05-13T19:05:27.671Z,15.00
2018-05-13T19:07:58.722Z,14.90
2018-05-13T19:10:30.671Z,14.90
2018-05-13T19:14:41.416Z,14.90
2018-05-13T19:17:10.147Z,14.90
2018-05-13T19:19:38.128Z,14.90
2018-05-13T19:22:06.799Z,14.90
2018-05-13T19:24:34.324Z,14.90
2018-05-13T19:27:02.603Z,14.90
2018-05-13T19:29:31.010Z,15.00
2018-05-13T19:31:59.997Z,14.90
2018-05-13T19:34:28.591Z,15.00
2018-05-13T19:36:56.649Z,15.00
2018-05-13T19:39:24.825Z,15.00
2018-05-13T19:41:53.546Z,15.00
2018-05-13T19:44:22.648Z,15.00
2018-05-13T19:46:52.443Z,15.00
2018-05-13T19:49:21.551Z,15.00
2018-05-13T19:51:50.418Z,15.00
2018-05-13T19:54:19.502Z,15.00
2018-05-13T19:56:48.841Z,15.20
2018-05-13T19:59:17.300Z,15.10
2018-05-13T20:01:46.643Z,15.10
2018-05-13T20:04:14.656Z,15.10
2018-05-13T20:06:42.981Z,15.10
2018-05-13T20:09:11.653Z,15.00
2018-05-13T20:11:39.891Z,15.00
2018-05-13T20:14:08.474Z,15.00
2018-05-13T20:16:36.239Z,15.00
2018-05-13T20:19:03.778Z,15.00
2018-05-13T20:21:32.092Z,15.00
2018-05-13T20:23:59.639Z,14.90
2018-05-13T20:26:27.188Z,14.90
2018-05-13T20:28:54.698Z,14.80
2018-05-13T20:31:22.312Z,14.80
2018-05-13T20:33:49.798Z,14.80
2018-05-13T20:36:17.350Z,14.80
2018-05-13T20:38:44.842Z,14.70
2018-05-13T20:41:13.836Z,14.70
2018-05-13T20:43:41.351Z,14.70
2018-05-13T20:46:08.834Z,14.70
2018-05-13T20:48:36.338Z,14.70
2018-05-13T20:51:03.827Z,14.60
2018-05-13T20:53:31.320Z,14.60
2018-05-13T20:55:58.846Z,14.60
2018-05-13T20:58:26.366Z,14.60
2018-05-13T21:00:54.650Z,14.60
2018-05-13T21:03:22.137Z,14.60
2018-05-13T21:05:49.628Z,14.50
2018-05-13T21:08:17.130Z,14.50
2018-05-13T21:10:44.618Z,14.40
2018-05-13T21:13:12.126Z,14.50
2018-05-13T21:15:40.374Z,14.60
2018-05-13T21:18:07.865Z,14.60
2018-05-13T21:20:35.370Z,14.60
2018-05-13T21:23:02.857Z,14.60
2018-05-13T21:25:31.135Z,14.60
2018-05-13T21:27:59.387Z,14.60
2018-05-13T21:30:26.875Z,14.60
2018-05-13T21:32:55.146Z,14.60
2018-05-13T21:35:23.393Z,14.50
2018-05-13T21:37:50.890Z,14.50
2018-05-13T21:40:19.130Z,14.70
2018-05-13T21:42:46.605Z,14.70
2018-05-13T21:45:14.870Z,14.70
2018-05-13T21:47:42.362Z,14.70
2018-05-13T21:50:10.626Z,14.60
2018-05-13T21:52:38.870Z,14.50
2018-05-13T21:55:06.351Z,14.50
2018-05-13T21:57:34.614Z,14.60
2018-05-13T22:00:02.099Z,14.60
2018-05-13T22:02:29.594Z,14.60
2018-05-13T22:04:58.690Z,14.50
2018-05-13T22:07:26.165Z,14.50
2018-05-13T22:09:53.670Z,14.50
2018-05-13T22:12:21.153Z,14.50
2018-05-13T22:14:48.697Z,14.40
2018-05-13T22:17:16.197Z,14.40
2018-05-13T22:19:43.671Z,14.40
2018-05-13T22:22:11.922Z,14.30
2018-05-13T22:24:39.443Z,14.30
2018-05-13T22:27:06.918Z,14.30
2018-05-13T22:29:34.421Z,14.30
2018-05-13T22:32:02.707Z,14.30
2018-05-13T22:34:30.954Z,14.40
2018-05-13T22:36:58.455Z,14.40
2018-05-13T22:39:25.932Z,14.50
2018-05-13T22:41:53.435Z,14.40
2018-05-13T22:44:20.910Z,14.50
2018-05-13T22:46:49.151Z,14.50
2018-05-13T22:49:16.646Z,14.40
2018-05-13T22:51:44.886Z,14.50
2018-05-13T22:54:12.406Z,14.50
2018-05-13T22:56:40.739Z,14.50
2018-05-13T22:59:08.990Z,14.60
2018-05-13T23:01:36.506Z,14.50
2018-05-13T23:04:04.008Z,14.50
2018-05-13T23:06:31.557Z,14.50
2018-05-13T23:08:59.072Z,14.60
2018-05-13T23:11:28.156Z,14.60
2018-05-13T23:13:56.445Z,14.70
2018-05-13T23:16:24.713Z,14.70
2018-05-13T23:18:53.004Z,14.70
2018-05-13T23:21:20.530Z,14.70
2018-05-13T23:23:48.023Z,14.60
2018-05-13T23:26:15.548Z,14.70
2018-05-13T23:28:43.047Z,14.60
2018-05-13T23:31:10.569Z,14.70
2018-05-13T23:33:38.182Z,14.60
2018-05-13T23:36:05.685Z,14.60
2018-05-13T23:38:33.213Z,14.50
2018-05-13T23:41:00.746Z,14.60
2018-05-13T23:43:28.957Z,14.50
2018-05-13T23:45:57.172Z,14.40
2018-05-13T23:48:26.173Z,14.40
2018-05-13T23:50:54.664Z,14.40
2018-05-13T23:53:22.948Z,14.50
2018-05-13T23:55:50.480Z,14.50
2018-05-13T23:58:17.974Z,14.60
